createdAt,value
2018-10-17T00:01:12.316Z,101720.67
2018-10-17T00:03:41.076Z,101726.28
2018-10-17T00:06:09.870Z,101727.12
2018-10-17T00:08:38.569Z,101729.75
2018-10-17T00:11:07.288Z,101719.87
2018-10-17T00:13:35.994Z,101728.05
2018-10-17T00:16:04.682Z,101722.48
2018-10-17T00:18:33.464Z,101733.68
2018-10-17T00:21:02.353Z,101725.96
2018-10-17T00:23:31.057Z,101730.66
2018-10-17T00:25:59.747Z,101725.82
2018-10-17T00:28:28.449Z,101727.59
2018-10-17T00:30:57.151Z,101731.06
2018-10-17T00:33:25.844Z,101723.11
2018-10-17T00:35:54.625Z,101726.88
2018-10-17T00:38:23.316Z,101748.09
2018-10-17T00:40:52.035Z,101744.25
2018-10-17T00:43:20.736Z,101746.02
2018-10-17T00:45:49.432Z,101750.00
2018-10-17T00:48:18.140Z,101743.91
2018-10-17T00:50:46.851Z,101744.84
2018-10-17T00:53:15.573Z,101744.08
2018-10-17T00:55:44.225Z,101743.67
2018-10-17T00:58:12.911Z,101744.98
2018-10-17T01:00:41.687Z,101740.59
2018-10-17T01:03:10.376Z,101747.15
2018-10-17T01:05:39.060Z,101744.53
2018-10-17T01:08:07.749Z,101744.12
2018-10-17T01:10:36.452Z,101747.52
2018-10-17T01:13:05.236Z,101744.90
2018-10-17T01:15:33.910Z,101747.06
2018-10-17T01:18:02.605Z,101747.15
2018-10-17T01:20:31.312Z,101741.51
2018-10-17T01:22:59.992Z,101743.59
2018-10-17T01:25:28.696Z,101740.20
2018-10-17T01:27:57.404Z,101738.03
2018-10-17T01:30:26.169Z,101737.58
2018-10-17T01:32:54.893Z,101726.87
2018-10-17T01:35:23.611Z,101725.56
2018-10-17T01:37:52.296Z,101738.52
2018-10-17T01:40:21.009Z,101732.93
2018-10-17T01:42:49.715Z,101731.97
2018-10-17T01:45:18.407Z,101736.36
2018-10-17T01:47:47.099Z,101740.20
2018-10-17T01:50:15.787Z,101732.80
2018-10-17T01:52:44.460Z,101740.66
2018-10-17T01:55:13.176Z,101742.81
2018-10-17T01:57:41.839Z,101737.58
2018-10-17T02:00:10.540Z,101738.52
2018-10-17T02:02:39.231Z,101739.97
2018-10-17T02:05:07.998Z,101735.73
2018-10-17T02:07:36.679Z,101734.06
2018-10-17T02:10:05.404Z,101736.31
2018-10-17T02:12:34.084Z,101738.94
2018-10-17T02:15:02.785Z,101736.77
2018-10-17T02:17:31.506Z,101733.30
2018-10-17T02:20:00.188Z,101726.75
2018-10-17T02:22:28.867Z,101726.75
2018-10-17T02:24:57.577Z,101716.41
2018-10-17T02:27:26.232Z,101720.28
2018-10-17T02:29:54.917Z,101726.75
2018-10-17T02:32:23.690Z,101725.07
2018-10-17T02:34:57.633Z,101721.14
2018-10-17T02:37:26.305Z,101722.81
2018-10-17T02:39:54.977Z,101720.20
2018-10-17T02:42:23.760Z,101728.45
2018-10-17T02:44:52.573Z,101721.91
2018-10-17T02:47:21.267Z,101722.81
2018-10-17T02:49:49.956Z,101717.58
2018-10-17T02:52:18.644Z,101722.81
2018-10-17T02:54:47.338Z,101719.29
2018-10-17T02:57:16.019Z,101725.84
2018-10-17T02:59:44.712Z,101728.45
2018-10-17T03:02:13.387Z,101731.94
2018-10-17T03:04:42.065Z,101736.77
2018-10-17T03:07:10.843Z,101737.68
2018-10-17T03:09:39.472Z,101736.86
2018-10-17T03:12:08.187Z,101735.91
2018-10-17T03:14:36.958Z,101740.30
2018-10-17T03:17:05.755Z,101746.39
2018-10-17T03:19:34.419Z,101733.38
2018-10-17T03:22:03.164Z,101737.45
2018-10-17T03:24:31.828Z,101740.84
2018-10-17T03:27:00.524Z,101739.16
2018-10-17T03:29:29.234Z,101737.50
2018-10-17T03:31:57.952Z,101730.72
2018-10-17T03:34:26.648Z,101728.50
2018-10-17T03:36:55.373Z,101729.95
2018-10-17T03:39:24.020Z,101727.47
2018-10-17T03:41:52.696Z,101730.14
2018-10-17T03:44:21.403Z,101739.39
2018-10-17T03:46:50.092Z,101735.52
2018-10-17T03:49:18.861Z,101731.27
2018-10-17T03:51:47.483Z,101733.25
2018-10-17T03:54:16.135Z,101736.67
2018-10-17T03:56:44.797Z,101732.34
2018-10-17T03:59:13.539Z,101739.02
2018-10-17T04:01:42.195Z,101747.33
2018-10-17T04:04:10.903Z,101746.48
2018-10-17T04:06:39.611Z,101747.02
2018-10-17T04:09:09.249Z,101760.10
2018-10-17T04:11:37.917Z,101752.33
2018-10-17T04:14:06.645Z,101763.25
2018-10-17T04:16:35.315Z,101755.53
2018-10-17T04:19:04.080Z,101766.46
2018-10-17T04:21:32.723Z,101766.55
2018-10-17T04:24:01.397Z,101772.15
2018-10-17T04:26:30.126Z,101767.45
2018-10-17T04:28:58.837Z,101773.14
2018-10-17T04:31:27.514Z,101775.44
2018-10-17T04:33:56.200Z,101776.74
2018-10-17T04:36:24.898Z,101778.50
2018-10-17T04:38:53.568Z,101780.67
2018-10-17T04:41:22.248Z,101783.73
2018-10-17T04:43:50.924Z,101792.45
2018-10-17T04:46:19.584Z,101784.59
2018-10-17T04:48:48.259Z,101786.84
2018-10-17T04:51:16.943Z,101790.28
2018-10-17T04:53:45.659Z,101790.36
2018-10-17T04:56:14.342Z,101789.51
2018-10-17T04:58:43.012Z,101783.42
2018-10-17T05:01:11.734Z,101786.11
2018-10-17T05:03:40.409Z,101800.06
2018-10-17T05:06:09.092Z,101809.27
2018-10-17T05:08:37.805Z,101800.51
2018-10-17T05:11:06.944Z,101799.73
2018-10-17T05:13:35.617Z,101793.24
2018-10-17T05:16:04.310Z,101798.10
2018-10-17T05:18:33.028Z,101805.09
2018-10-17T05:21:01.713Z,101803.80
2018-10-17T05:23:30.371Z,101801.22
2018-10-17T05:25:59.032Z,101813.45
2018-10-17T05:28:27.671Z,101821.30
2018-10-17T05:30:56.361Z,101822.69
2018-10-17T05:33:25.035Z,101823.02
2018-10-17T05:35:53.730Z,101820.08
2018-10-17T05:38:22.742Z,101825.31
2018-10-17T05:40:51.465Z,101831.45
2018-10-17T05:43:20.119Z,101831.94
2018-10-17T05:45:48.812Z,101843.63
2018-10-17T05:48:17.472Z,101834.56
2018-10-17T05:50:46.271Z,101832.39
2018-10-17T05:53:15.084Z,101827.52
2018-10-17T05:55:43.691Z,101828.88
2018-10-17T05:58:12.452Z,101840.20
2018-10-17T06:00:41.142Z,101833.01
2018-10-17T06:03:09.808Z,101841.51
2018-10-17T06:05:38.511Z,101843.31
2018-10-17T06:08:07.272Z,101844.53
2018-10-17T06:10:36.020Z,101840.65
2018-10-17T06:13:04.814Z,101841.09
2018-10-17T06:15:33.499Z,101837.25
2018-10-17T06:18:02.175Z,101847.64
2018-10-17T06:20:30.919Z,101845.03
2018-10-17T06:22:59.676Z,101850.02
2018-10-17T06:25:28.385Z,101844.45
2018-10-17T06:27:57.024Z,101854.31
2018-10-17T06:30:25.751Z,101865.19
2018-10-17T06:32:54.608Z,101869.56
2018-10-17T06:35:23.315Z,101865.64
2018-10-17T06:37:52.008Z,101867.40
2018-10-17T06:40:20.790Z,101873.48
2018-10-17T06:42:49.484Z,101873.94
2018-10-17T06:45:18.196Z,101870.02
2018-10-17T06:47:46.892Z,101874.47
2018-10-17T06:50:15.577Z,101876.31
2018-10-17T06:52:44.280Z,101883.30
2018-10-17T06:55:13.027Z,101888.98
2018-10-17T06:57:41.707Z,101887.67
2018-10-17T07:00:11.300Z,101886.81
2018-10-17T07:02:40.016Z,101896.43
2018-10-17T07:05:09.912Z,101898.59
2018-10-17T07:07:38.588Z,101912.00
2018-10-17T07:10:07.359Z,101905.09
2018-10-17T07:12:36.101Z,101912.82
2018-10-17T07:15:05.502Z,101909.27
2018-10-17T07:17:34.202Z,101910.12
2018-10-17T07:20:03.001Z,101913.97
2018-10-17T07:22:31.697Z,101917.00
2018-10-17T07:25:00.455Z,101916.05
2018-10-17T07:27:29.112Z,101920.38
2018-10-17T07:29:57.904Z,101922.92
2018-10-17T07:32:26.627Z,101921.90
2018-10-17T07:34:55.354Z,101914.70
2018-10-17T07:37:24.123Z,101915.48
2018-10-17T07:39:52.847Z,101917.97
2018-10-17T07:42:21.532Z,101921.37
2018-10-17T07:44:50.237Z,101917.77
2018-10-17T07:47:18.926Z,101920.80
2018-10-17T07:49:47.628Z,101920.80
2018-10-17T07:52:16.315Z,101920.72
2018-10-17T07:54:45.015Z,101925.50
2018-10-17T07:57:13.726Z,101932.45
2018-10-17T07:59:42.492Z,101935.07
2018-10-17T08:02:11.164Z,101942.92
2018-10-17T08:04:39.864Z,101939.45
2018-10-17T08:07:08.546Z,101943.78
2018-10-17T08:09:37.236Z,101938.14
2018-10-17T08:12:05.926Z,101943.78
2018-10-17T08:14:34.607Z,101947.18
2018-10-17T08:17:03.322Z,101946.28
2018-10-17T08:19:32.036Z,101946.16
2018-10-17T08:22:00.744Z,101949.09
2018-10-17T08:24:29.436Z,101953.73
2018-10-17T08:26:58.144Z,101957.16
2018-10-17T08:29:27.383Z,101962.31
2018-10-17T08:31:56.153Z,101965.79
2018-10-17T08:34:24.849Z,101961.98
2018-10-17T08:36:53.640Z,101963.17
2018-10-17T08:39:22.301Z,101961.91
2018-10-17T08:41:50.987Z,101968.00
2018-10-17T08:44:19.822Z,101973.24
2018-10-17T08:46:48.552Z,101977.50
2018-10-17T08:49:17.271Z,101983.59
2018-10-17T08:51:45.999Z,101983.06
2018-10-17T08:54:14.724Z,101974.83
2018-10-17T08:56:43.488Z,101980.59
2018-10-17T08:59:12.183Z,101983.87
2018-10-17T09:01:40.893Z,101982.68
2018-10-17T09:04:09.633Z,101984.92
2018-10-17T09:06:38.322Z,101988.96
2018-10-17T09:09:11.686Z,101989.88
2018-10-17T09:11:40.982Z,101994.33
2018-10-17T09:14:10.115Z,101987.38
2018-10-17T09:16:39.298Z,101998.64
2018-10-17T09:19:08.372Z,102002.18
2018-10-17T09:21:37.356Z,101997.84
2018-10-17T09:24:06.081Z,102000.83
2018-10-17T09:26:34.947Z,101995.67
2018-10-17T09:29:03.986Z,101992.58
2018-10-17T09:31:32.733Z,101980.28
2018-10-17T09:34:01.526Z,101982.31
2018-10-17T09:36:30.316Z,101990.98
2018-10-17T09:38:59.056Z,101986.59
2018-10-17T09:41:27.769Z,101987.80
2018-10-17T09:43:56.523Z,101995.75
2018-10-17T09:46:25.315Z,101992.05
2018-10-17T09:48:54.101Z,101999.30
2018-10-17T09:51:22.828Z,102000.40
2018-10-17T09:53:51.563Z,102009.05
2018-10-17T09:56:20.316Z,102006.87
2018-10-17T09:58:49.035Z,102017.79
2018-10-17T10:01:22.866Z,102021.58
2018-10-17T10:03:51.647Z,102016.08
2018-10-17T10:06:20.346Z,102015.83
2018-10-17T10:08:49.049Z,102017.76
2018-10-17T10:11:17.732Z,102012.74
2018-10-17T10:13:46.482Z,102020.69
2018-10-17T10:16:15.248Z,102023.92
2018-10-17T10:18:43.925Z,102031.75
2018-10-17T10:21:12.671Z,102032.97
2018-10-17T10:23:41.481Z,102036.40
2018-10-17T10:26:10.168Z,102040.65
2018-10-17T10:28:38.990Z,102043.42
2018-10-17T10:31:07.665Z,102049.13
2018-10-17T10:33:36.362Z,102047.47
2018-10-17T10:36:05.206Z,102040.58
2018-10-17T10:38:33.855Z,102039.50
2018-10-17T10:41:02.545Z,102033.28
2018-10-17T10:43:31.252Z,102044.84
2018-10-17T10:46:00.038Z,102048.78
2018-10-17T10:48:28.980Z,102052.86
2018-10-17T10:50:57.721Z,102053.72
2018-10-17T10:53:26.408Z,102051.81
2018-10-17T10:55:55.212Z,102045.08
2018-10-17T10:58:24.215Z,102044.68
2018-10-17T11:00:53.689Z,102052.11
2018-10-17T11:03:22.412Z,102053.33
2018-10-17T11:05:51.170Z,102048.47
2018-10-17T11:08:19.858Z,102050.94
2018-10-17T11:10:48.569Z,102052.30
2018-10-17T11:13:17.231Z,102050.81
2018-10-17T11:15:45.922Z,102045.71
2018-10-17T11:18:14.623Z,102046.69
2018-10-17T11:20:43.331Z,102042.89
2018-10-17T11:23:12.837Z,102053.38
2018-10-17T11:25:41.542Z,102047.02
2018-10-17T11:28:10.247Z,102048.98
2018-10-17T11:30:38.927Z,102044.48
2018-10-17T11:33:07.669Z,102051.10
2018-10-17T11:35:36.379Z,102038.32
2018-10-17T11:38:05.196Z,102040.41
2018-10-17T11:40:33.984Z,102030.02
2018-10-17T11:43:02.711Z,102035.88
2018-10-17T11:45:31.416Z,102039.33
2018-10-17T11:48:00.129Z,102034.00
2018-10-17T11:50:28.893Z,102034.81
2018-10-17T11:52:59.416Z,102038.04
2018-10-17T11:55:28.121Z,102043.83
2018-10-17T11:57:56.817Z,102045.75
2018-10-17T12:00:25.526Z,102041.80
2018-10-17T12:02:54.310Z,102047.09
2018-10-17T12:05:23.239Z,102048.16
2018-10-17T12:07:51.710Z,102049.59
2018-10-17T12:10:20.400Z,102052.34
2018-10-17T12:12:49.115Z,102054.63
2018-10-17T12:15:17.934Z,102050.78
2018-10-17T12:17:46.545Z,102052.97
2018-10-17T12:20:15.930Z,102054.88
2018-10-17T12:22:45.344Z,102053.37
2018-10-17T12:25:14.632Z,102051.12
2018-10-17T12:27:43.375Z,102047.70
2018-10-17T12:30:15.146Z,102053.76
2018-10-17T12:32:43.852Z,102048.96
2018-10-17T12:35:13.041Z,102052.36
2018-10-17T12:37:41.692Z,102058.78
2018-10-17T12:40:11.355Z,102055.00
2018-10-17T12:42:40.015Z,102052.25
2018-10-17T12:45:08.780Z,102054.14
2018-10-17T12:47:37.436Z,102053.44
2018-10-17T12:50:07.367Z,102051.15
2018-10-17T12:52:36.149Z,102049.52
2018-10-17T12:55:05.710Z,102047.16
2018-10-17T12:57:34.352Z,102050.34
2018-10-17T13:00:03.121Z,102056.52
2018-10-17T13:02:31.853Z,102055.91
2018-10-17T13:05:00.609Z,102054.38
2018-10-17T13:07:29.336Z,102057.91
2018-10-17T13:09:58.049Z,102061.48
2018-10-17T13:12:26.735Z,102056.52
2018-10-17T13:14:55.496Z,102056.73
2018-10-17T13:17:24.236Z,102065.45
2018-10-17T13:19:52.940Z,102064.92
2018-10-17T13:22:21.608Z,102069.92
2018-10-17T13:24:50.323Z,102062.98
2018-10-17T13:27:19.089Z,102062.08
2018-10-17T13:29:47.790Z,102065.31
2018-10-17T13:32:16.448Z,102073.66
2018-10-17T13:34:45.164Z,102074.52
2018-10-17T13:37:14.012Z,102074.55
2018-10-17T13:39:42.760Z,102076.43
2018-10-17T13:42:11.590Z,102072.08
2018-10-17T13:44:40.257Z,102076.84
2018-10-17T13:47:09.058Z,102089.02
2018-10-17T13:49:37.853Z,102080.93
2018-10-17T13:52:06.652Z,102085.42
2018-10-17T13:54:35.389Z,102093.90
2018-10-17T13:57:04.176Z,102093.59
2018-10-17T13:59:32.917Z,102088.49
2018-10-17T14:02:01.678Z,102093.55
2018-10-17T14:04:30.409Z,102093.08
2018-10-17T14:06:59.161Z,102099.94
2018-10-17T14:09:27.902Z,102093.38
2018-10-17T14:11:57.971Z,102090.45
2018-10-17T14:14:26.669Z,102088.02
2018-10-17T14:16:55.387Z,102090.34
2018-10-17T14:19:24.124Z,102097.01
2018-10-17T14:21:52.845Z,102094.77
2018-10-17T14:24:21.562Z,102087.50
2018-10-17T14:26:50.268Z,102090.46
2018-10-17T14:29:19.125Z,102090.98
2018-10-17T14:31:47.816Z,102094.30
2018-10-17T14:34:16.582Z,102093.72
2018-10-17T14:36:45.272Z,102098.59
2018-10-17T14:39:13.998Z,102104.97
2018-10-17T14:41:42.710Z,102098.59
2018-10-17T14:44:11.425Z,102108.14
2018-10-17T14:46:40.298Z,102110.91
2018-10-17T14:49:09.008Z,102113.38
2018-10-17T14:51:37.696Z,102117.06
2018-10-17T14:54:06.693Z,102118.09
2018-10-17T14:56:35.414Z,102127.33
2018-10-17T14:59:04.187Z,102122.42
2018-10-17T15:01:32.868Z,102119.34
2018-10-17T15:04:01.582Z,102120.45
2018-10-17T15:06:30.284Z,102121.31
2018-10-17T15:08:58.996Z,102117.48
2018-10-17T15:11:27.818Z,102116.45
2018-10-17T15:13:56.506Z,102118.11
2018-10-17T15:16:25.224Z,102125.40
2018-10-17T15:18:53.970Z,102126.23
2018-10-17T15:21:22.687Z,102122.33
2018-10-17T15:23:51.459Z,102124.52
2018-10-17T15:26:20.179Z,102135.17
2018-10-17T15:28:49.730Z,102136.86
2018-10-17T15:31:18.583Z,102136.56
2018-10-17T15:33:47.555Z,102143.68
2018-10-17T15:36:16.440Z,102144.41
2018-10-17T15:38:45.133Z,102144.27
2018-10-17T15:41:13.882Z,102156.85
2018-10-17T15:43:42.896Z,102148.52
2018-10-17T15:46:11.723Z,102155.98
2018-10-17T15:48:40.505Z,102164.30
2018-10-17T15:51:09.386Z,102168.56
2018-10-17T15:53:38.099Z,102168.42
2018-10-17T15:56:06.802Z,102162.95
2018-10-17T15:58:35.526Z,102168.83
2018-10-17T16:01:04.333Z,102165.80
2018-10-17T16:03:33.028Z,102170.16
2018-10-17T16:06:01.809Z,102163.27
2018-10-17T16:08:30.529Z,102173.80
2018-10-17T16:10:59.374Z,102172.03
2018-10-17T16:13:28.104Z,102179.63
2018-10-17T16:15:56.828Z,102183.27
2018-10-17T16:18:25.557Z,102180.45
2018-10-17T16:20:54.316Z,102187.64
2018-10-17T16:23:23.152Z,102191.19
2018-10-17T16:25:51.854Z,102191.83
2018-10-17T16:28:20.659Z,102193.61
2018-10-17T16:30:49.428Z,102194.06
2018-10-17T16:33:18.141Z,102199.42
2018-10-17T16:35:46.955Z,102192.84
2018-10-17T16:38:15.758Z,102205.53
2018-10-17T16:40:44.467Z,102214.49
2018-10-17T16:43:13.241Z,102206.68
2018-10-17T16:45:42.002Z,102216.58
2018-10-17T16:48:10.957Z,102215.10
2018-10-17T16:50:39.695Z,102224.51
2018-10-17T16:53:08.312Z,102239.30
2018-10-17T16:55:37.088Z,102235.23
2018-10-17T16:58:05.952Z,102243.04
2018-10-17T17:00:34.796Z,102245.95
2018-10-17T17:03:03.512Z,102249.27
2018-10-17T17:05:32.228Z,102248.23
2018-10-17T17:08:01.009Z,102258.64
2018-10-17T17:10:29.792Z,102258.52
2018-10-17T17:12:58.556Z,102260.91
2018-10-17T17:15:27.337Z,102266.41
2018-10-17T17:17:56.140Z,102271.06
2018-10-17T17:20:24.911Z,102269.56
2018-10-17T17:22:53.778Z,102274.17
2018-10-17T17:25:22.445Z,102283.12
2018-10-17T17:27:51.261Z,102286.02
2018-10-17T17:30:20.399Z,102292.72
2018-10-17T17:32:49.468Z,102296.01
2018-10-17T17:37:46.847Z,102301.27
2018-10-17T17:40:15.828Z,102304.02
2018-10-17T17:42:44.483Z,102304.60
2018-10-17T17:45:13.182Z,102319.62
2018-10-17T17:47:41.887Z,102311.09
2018-10-17T17:50:18.120Z,102316.47
2018-10-17T17:52:46.794Z,102325.40
2018-10-17T17:55:15.493Z,102326.42
2018-10-17T17:57:44.210Z,102329.58
2018-10-17T18:00:12.945Z,102331.09
2018-10-17T18:02:41.641Z,102339.54
2018-10-17T18:05:10.380Z,102337.04
2018-10-17T18:07:39.080Z,102338.80
2018-10-17T18:10:08.283Z,102338.47
2018-10-17T18:12:37.016Z,102341.63
2018-10-17T18:15:06.720Z,102344.81
2018-10-17T18:17:35.396Z,102346.66
2018-10-17T18:20:06.983Z,102347.64
2018-10-17T18:22:35.888Z,102353.41
2018-10-17T18:25:04.755Z,102361.77
2018-10-17T18:27:33.578Z,102360.09
2018-10-17T18:30:02.373Z,102369.38
2018-10-17T18:32:31.094Z,102367.66
2018-10-17T18:34:59.815Z,102368.11
2018-10-17T18:37:28.517Z,102375.64
2018-10-17T18:39:57.264Z,102383.14
2018-10-17T18:42:25.963Z,102381.50
2018-10-17T18:44:54.649Z,102381.57
2018-10-17T18:47:23.331Z,102372.95
2018-10-17T18:49:52.015Z,102384.76
2018-10-17T18:52:20.726Z,102390.41
2018-10-17T18:54:49.415Z,102388.35
2018-10-17T18:57:18.191Z,102398.39
2018-10-17T18:59:46.838Z,102403.67
2018-10-17T19:02:15.532Z,102403.34
2018-10-17T19:04:44.239Z,102412.59
2018-10-17T19:07:12.927Z,102416.19
2018-10-17T19:09:41.657Z,102417.09
2018-10-17T19:12:10.352Z,102416.30
2018-10-17T19:14:39.044Z,102421.12
2018-10-17T19:17:07.752Z,102424.20
2018-10-17T19:19:36.481Z,102422.55
2018-10-17T19:22:05.817Z,102423.97
2018-10-17T19:24:34.523Z,102433.14
2018-10-17T19:27:03.243Z,102430.59
2018-10-17T19:29:31.961Z,102434.98
2018-10-17T19:32:00.669Z,102443.77
2018-10-17T19:34:29.364Z,102442.95
2018-10-17T19:36:58.068Z,102443.47
2018-10-17T19:39:26.750Z,102439.60
2018-10-17T19:41:55.534Z,102447.50
2018-10-17T19:44:24.208Z,102450.64
2018-10-17T19:46:52.879Z,102447.61
2018-10-17T19:49:21.559Z,102455.58
2018-10-17T19:51:50.217Z,102454.34
2018-10-17T19:54:18.904Z,102452.23
2018-10-17T19:56:47.581Z,102451.79
2018-10-17T19:59:16.286Z,102458.83
2018-10-17T20:01:45.016Z,102456.31
2018-10-17T20:04:13.701Z,102464.31
2018-10-17T20:06:42.396Z,102461.38
2018-10-17T20:09:11.781Z,102468.45
2018-10-17T20:11:40.417Z,102468.92
2018-10-17T20:14:09.769Z,102469.45
2018-10-17T20:16:38.456Z,102471.27
2018-10-17T20:19:07.158Z,102479.64
2018-10-17T20:21:35.836Z,102480.98
2018-10-17T20:24:04.562Z,102484.06
2018-10-17T20:26:33.268Z,102488.05
2018-10-17T20:29:02.055Z,102484.33
2018-10-17T20:31:30.828Z,102495.66
2018-10-17T20:33:59.638Z,102494.91
2018-10-17T20:36:28.431Z,102498.90
2018-10-17T20:38:57.201Z,102507.72
2018-10-17T20:41:25.982Z,102501.77
2018-10-17T20:43:54.755Z,102512.64
2018-10-17T20:46:23.618Z,102513.15
2018-10-17T20:48:52.387Z,102510.17
2018-10-17T20:51:21.137Z,102506.86
2018-10-17T20:53:49.900Z,102512.89
2018-10-17T20:56:18.911Z,102515.58
2018-10-17T20:58:47.583Z,102519.98
2018-10-17T21:01:16.306Z,102517.87
2018-10-17T21:03:45.005Z,102526.69
2018-10-17T21:06:13.725Z,102524.25
2018-10-17T21:08:42.432Z,102534.70
2018-10-17T21:11:11.164Z,102536.48
2018-10-17T21:13:39.833Z,102535.23
2018-10-17T21:16:08.562Z,102536.55
2018-10-17T21:18:37.298Z,102530.45
2018-10-17T21:21:06.359Z,102534.82
2018-10-17T21:23:35.039Z,102534.08
2018-10-17T21:26:03.730Z,102540.21
2018-10-17T21:28:32.451Z,102541.97
2018-10-17T21:31:01.204Z,102547.17
2018-10-17T21:33:29.936Z,102554.16
2018-10-17T21:35:58.660Z,102545.56
2018-10-17T21:38:27.344Z,102549.91
2018-10-17T21:40:56.048Z,102555.14
2018-10-17T21:43:24.724Z,102550.39
2018-10-17T21:45:53.419Z,102547.83
2018-10-17T21:48:22.204Z,102554.40
2018-10-17T21:50:51.055Z,102556.66
2018-10-17T21:53:19.737Z,102555.80
2018-10-17T21:55:48.415Z,102560.65
2018-10-17T21:58:17.122Z,102569.39
2018-10-17T22:00:45.824Z,102566.36
2018-10-17T22:03:14.505Z,102569.84
2018-10-17T22:05:43.248Z,102569.90
2018-10-17T22:08:12.088Z,102573.41
2018-10-17T22:10:40.690Z,102579.56
2018-10-17T22:13:09.391Z,102575.31
2018-10-17T22:15:38.056Z,102580.13
2018-10-17T22:18:07.061Z,102576.70
2018-10-17T22:20:35.760Z,102583.75
2018-10-17T22:23:04.493Z,102581.58
2018-10-17T22:25:33.168Z,102590.80
2018-10-17T22:28:01.856Z,102595.16
2018-10-17T22:30:30.644Z,102599.09
2018-10-17T22:32:59.304Z,102601.73
2018-10-17T22:35:27.993Z,102603.05
2018-10-17T22:37:56.717Z,102603.97
2018-10-17T22:40:25.363Z,102603.09
2018-10-17T22:42:54.115Z,102607.47
2018-10-17T22:45:22.784Z,102603.16
2018-10-17T22:47:51.467Z,102611.90
2018-10-17T22:50:20.248Z,102610.61
2018-10-17T22:52:48.947Z,102616.35
2018-10-17T22:55:17.639Z,102617.30
2018-10-17T22:57:46.327Z,102608.73
2018-10-17T23:00:15.040Z,102619.27
2018-10-17T23:02:43.713Z,102620.22
2018-10-17T23:05:12.383Z,102620.74
2018-10-17T23:07:41.053Z,102627.78
2018-10-17T23:10:09.766Z,102625.67
2018-10-17T23:12:42.425Z,102623.13
2018-10-17T23:15:13.761Z,102620.16
2018-10-17T23:17:42.437Z,102625.02
2018-10-17T23:20:11.293Z,102634.25
2018-10-17T23:22:41.265Z,102632.52
2018-10-17T23:25:11.285Z,102633.54
2018-10-17T23:27:40.388Z,102634.12
2018-10-17T23:30:10.106Z,102634.17
2018-10-17T23:32:39.180Z,102632.52
2018-10-17T23:35:07.892Z,102637.25
2018-10-17T23:37:36.632Z,102639.86
2018-10-17T23:40:05.783Z,102643.39
2018-10-17T23:42:34.573Z,102643.84
2018-10-17T23:45:03.208Z,102646.89
2018-10-17T23:47:31.907Z,102638.27
2018-10-17T23:50:00.598Z,102645.20
2018-10-17T23:52:29.291Z,102642.16
2018-10-17T23:54:57.986Z,102646.51
2018-10-17T23:57:26.670Z,102640.52
2018-10-17T23:59:55.371Z,102652.27
